createdAt,value
2019-02-24T00:03:11.999Z,32.93
2019-02-24T00:07:15.414Z,33.37
2019-02-24T00:11:21.953Z,39.90
2019-02-24T00:15:25.328Z,39.00
2019-02-24T00:19:28.709Z,45.03
2019-02-24T00:23:32.122Z,44.27
2019-02-24T00:27:35.560Z,46.47
2019-02-24T00:31:38.886Z,40.03
2019-02-24T00:35:42.242Z,40.03
2019-02-24T00:39:45.551Z,38.07
2019-02-24T00:43:48.958Z,45.53
2019-02-24T00:47:52.367Z,49.27
2019-02-24T00:51:55.773Z,44.30
2019-02-24T00:55:59.180Z,43.40
2019-02-24T01:00:02.591Z,54.13
2019-02-24T01:04:05.998Z,42.97
2019-02-24T01:08:09.418Z,49.10
2019-02-24T01:12:13.123Z,44.57
2019-02-24T01:16:16.534Z,46.30
2019-02-24T01:20:19.835Z,41.33
2019-02-24T01:24:23.252Z,43.87
2019-02-24T01:28:26.669Z,42.83
2019-02-24T01:32:30.067Z,43.97
2019-02-24T01:36:33.380Z,38.83
2019-02-24T01:40:36.783Z,45.60
2019-02-24T01:44:40.190Z,42.60
2019-02-24T01:48:43.702Z,45.43
2019-02-24T01:52:47.063Z,42.83
2019-02-24T01:56:50.417Z,43.10
2019-02-24T02:00:53.828Z,42.03
2019-02-24T02:04:58.531Z,43.48
2019-02-24T02:09:01.972Z,41.47
2019-02-24T02:13:05.386Z,41.60
2019-02-24T02:17:08.790Z,44.00
2019-02-24T02:21:12.200Z,45.00
2019-02-24T02:25:15.586Z,43.63
2019-02-24T02:29:19.018Z,42.63
2019-02-24T02:33:22.430Z,45.17
2019-02-24T02:37:25.834Z,39.77
2019-02-24T02:41:29.245Z,40.27
2019-02-24T02:45:33.677Z,45.57
2019-02-24T02:49:37.090Z,41.57
2019-02-24T02:53:40.490Z,53.60
2019-02-24T02:57:43.800Z,41.53
2019-02-24T03:01:47.117Z,53.60
2019-02-24T03:05:58.092Z,47.00
2019-02-24T03:10:02.875Z,46.28
2019-02-24T03:14:06.342Z,50.67
2019-02-24T03:18:09.661Z,46.57
2019-02-24T03:22:13.071Z,50.83
2019-02-24T03:26:16.374Z,48.40
2019-02-24T03:30:19.773Z,46.87
2019-02-24T03:34:23.079Z,48.30
2019-02-24T03:38:26.491Z,41.83
2019-02-24T03:42:30.143Z,40.20
2019-02-24T03:46:33.525Z,36.87
2019-02-24T03:50:37.021Z,38.40
2019-02-24T03:54:40.429Z,38.73
2019-02-24T03:58:43.838Z,34.33
2019-02-24T04:02:47.146Z,52.27
2019-02-24T04:06:50.460Z,40.67
2019-02-24T04:10:53.865Z,38.40
2019-02-24T04:14:57.267Z,41.50
2019-02-24T04:19:00.675Z,46.43
2019-02-24T04:23:04.160Z,43.50
2019-02-24T04:27:07.495Z,39.67
2019-02-24T04:31:10.909Z,38.47
2019-02-24T04:35:14.197Z,42.13
2019-02-24T04:39:17.617Z,43.40
2019-02-24T04:43:21.037Z,45.53
2019-02-24T04:47:24.354Z,40.70
2019-02-24T04:51:27.741Z,50.80
2019-02-24T04:55:31.151Z,44.63
2019-02-24T04:59:35.345Z,47.43
2019-02-24T05:03:38.772Z,48.53
2019-02-24T05:07:42.096Z,40.97
2019-02-24T05:11:45.712Z,46.87
2019-02-24T05:15:49.115Z,49.50
2019-02-24T05:19:52.514Z,40.47
2019-02-24T05:23:55.939Z,50.03
2019-02-24T05:27:59.236Z,40.27
2019-02-24T05:32:02.648Z,38.50
2019-02-24T05:36:05.955Z,40.23
2019-02-24T05:40:09.364Z,42.80
2019-02-24T05:44:12.997Z,45.13
2019-02-24T05:48:16.350Z,47.27
2019-02-24T05:52:19.693Z,44.33
2019-02-24T05:56:23.110Z,44.73
2019-02-24T06:00:26.525Z,51.37
2019-02-24T06:04:29.921Z,46.23
2019-02-24T06:08:33.324Z,43.07
2019-02-24T06:12:36.739Z,49.87
2019-02-24T06:16:40.123Z,47.10
2019-02-24T06:20:43.447Z,38.50
2019-02-24T06:24:46.860Z,51.60
2019-02-24T06:28:50.367Z,49.07
2019-02-24T06:32:53.881Z,41.90
2019-02-24T06:36:57.309Z,45.83
2019-02-24T06:41:00.700Z,45.63
2019-02-24T06:45:05.119Z,42.63
2019-02-24T06:49:08.541Z,38.63
2019-02-24T06:53:12.950Z,36.13
2019-02-24T06:57:16.981Z,31.97
2019-02-24T07:01:20.404Z,33.25
2019-02-24T07:05:23.824Z,34.58
2019-02-24T07:09:27.241Z,36.85
2019-02-24T07:13:30.649Z,37.55
2019-02-24T07:17:34.051Z,47.38
2019-02-24T07:21:37.445Z,40.70
2019-02-24T07:25:40.875Z,38.28
2019-02-24T07:29:44.216Z,42.15
2019-02-24T07:33:47.778Z,37.85
2019-02-24T07:37:51.104Z,42.00
2019-02-24T07:41:54.488Z,35.97
2019-02-24T07:45:57.787Z,35.73
2019-02-24T07:50:01.222Z,34.50
2019-02-24T07:54:04.520Z,31.80
2019-02-24T07:58:07.918Z,35.88
2019-02-24T08:02:11.225Z,29.77
2019-02-24T08:06:14.520Z,28.80
2019-02-24T08:10:17.941Z,29.23
2019-02-24T08:14:21.262Z,27.45
2019-02-24T08:18:24.660Z,30.70
2019-02-24T08:22:28.006Z,28.65
2019-02-24T08:26:31.335Z,25.50
2019-02-24T08:30:41.627Z,25.72
2019-02-24T08:34:40.954Z,29.65
2019-02-24T08:38:44.362Z,29.67
2019-02-24T08:42:47.772Z,26.87
2019-02-24T08:46:51.192Z,30.48
2019-02-24T08:50:54.588Z,29.95
2019-02-24T08:54:57.997Z,28.27
2019-02-24T08:59:01.405Z,26.05
2019-02-24T09:03:04.814Z,22.80
2019-02-24T09:07:08.635Z,21.30
2019-02-24T09:11:12.013Z,25.23
2019-02-24T09:15:15.696Z,21.70
2019-02-24T09:19:19.259Z,25.52
2019-02-24T09:23:22.643Z,23.20
2019-02-24T09:27:25.983Z,22.17
2019-02-24T09:31:29.612Z,20.40
2019-02-24T09:35:33.005Z,19.57
2019-02-24T09:39:36.414Z,21.77
2019-02-24T09:43:39.821Z,21.27
2019-02-24T09:47:46.720Z,19.60
2019-02-24T09:51:48.589Z,19.50
2019-02-24T09:55:51.995Z,24.00
2019-02-24T09:59:55.406Z,22.37
2019-02-24T10:03:58.793Z,18.80
2019-02-24T10:08:02.226Z,17.67
2019-02-24T10:12:05.594Z,17.17
2019-02-24T10:16:09.039Z,16.12
2019-02-24T10:20:12.949Z,16.37
2019-02-24T10:24:16.369Z,20.68
2019-02-24T10:28:19.781Z,15.88
2019-02-24T10:32:23.203Z,14.35
2019-02-24T10:36:26.598Z,16.30
2019-02-24T10:40:30.004Z,15.23
2019-02-24T10:44:33.416Z,15.63
2019-02-24T10:48:36.752Z,15.23
2019-02-24T10:52:40.244Z,14.63
2019-02-24T10:56:43.765Z,14.75
2019-02-24T11:00:47.154Z,16.40
2019-02-24T11:04:50.588Z,14.47
2019-02-24T11:08:53.894Z,15.18
2019-02-24T11:12:57.483Z,15.25
2019-02-24T11:17:00.895Z,18.32
2019-02-24T11:21:04.299Z,14.78
2019-02-24T11:25:09.617Z,14.68
2019-02-24T11:29:13.052Z,15.55
2019-02-24T11:33:16.473Z,18.05
2019-02-24T11:37:19.884Z,15.60
2019-02-24T11:41:23.291Z,17.92
2019-02-24T11:45:26.700Z,16.25
2019-02-24T11:49:30.121Z,17.77
2019-02-24T11:53:33.518Z,17.87
2019-02-24T11:57:36.847Z,16.18
2019-02-24T12:01:47.315Z,13.32
2019-02-24T12:05:45.279Z,14.47
2019-02-24T12:09:48.691Z,14.43
2019-02-24T12:13:52.205Z,13.38
2019-02-24T12:17:55.609Z,12.90
2019-02-24T12:21:58.904Z,13.30
2019-02-24T12:26:02.221Z,13.40
2019-02-24T12:30:08.909Z,12.33
2019-02-24T12:34:12.256Z,13.85
2019-02-24T12:38:15.552Z,14.90
2019-02-24T12:42:18.936Z,14.13
2019-02-24T12:46:22.342Z,16.80
2019-02-24T12:50:25.671Z,15.20
2019-02-24T12:54:29.062Z,17.98
2019-02-24T12:58:32.455Z,11.33
2019-02-24T13:02:35.762Z,12.40
2019-02-24T13:06:39.083Z,11.85
2019-02-24T13:10:42.377Z,13.25
2019-02-24T13:14:46.104Z,11.70
2019-02-24T13:18:49.498Z,11.18
2019-02-24T13:22:52.817Z,12.20
2019-02-24T13:26:56.224Z,13.70
2019-02-24T13:30:59.562Z,12.03
2019-02-24T13:35:04.597Z,12.30
2019-02-24T13:39:07.993Z,12.10
2019-02-24T13:43:11.360Z,12.07
2019-02-24T13:47:14.710Z,11.80
2019-02-24T13:51:18.116Z,12.90
2019-02-24T13:55:21.443Z,13.25
2019-02-24T13:59:24.828Z,12.47
2019-02-24T14:03:28.139Z,11.33
2019-02-24T14:07:31.436Z,10.93
2019-02-24T14:11:34.798Z,9.63
2019-02-24T14:15:38.216Z,11.80
2019-02-24T14:19:41.612Z,15.78
2019-02-24T14:23:44.905Z,10.15
2019-02-24T14:27:48.281Z,10.63
2019-02-24T14:31:51.589Z,12.05
2019-02-24T14:35:54.926Z,10.93
2019-02-24T14:39:58.243Z,10.65
2019-02-24T14:44:01.556Z,10.20
2019-02-24T14:48:05.743Z,12.75
2019-02-24T14:52:09.074Z,11.18
2019-02-24T14:56:12.561Z,11.55
2019-02-24T15:00:21.737Z,10.50
2019-02-24T15:04:25.028Z,14.20
2019-02-24T15:08:28.414Z,11.22
2019-02-24T15:12:31.727Z,10.55
2019-02-24T15:16:35.046Z,11.78
2019-02-24T15:20:38.371Z,19.17
2019-02-24T15:24:41.678Z,14.03
2019-02-24T15:28:44.967Z,12.45
2019-02-24T15:32:51.522Z,11.68
2019-02-24T15:36:53.507Z,10.38
2019-02-24T15:40:56.915Z,11.25
2019-02-24T15:45:00.249Z,11.65
2019-02-24T15:49:03.634Z,10.98
2019-02-24T15:53:07.040Z,12.93
2019-02-24T15:57:11.580Z,13.15
2019-02-24T16:01:14.989Z,19.27
2019-02-24T16:05:18.291Z,16.25
2019-02-24T16:09:21.700Z,15.53
2019-02-24T16:13:25.015Z,18.07
2019-02-24T16:17:28.340Z,27.90
2019-02-24T16:21:31.823Z,26.05
2019-02-24T16:25:35.168Z,22.48
2019-02-24T16:29:38.445Z,16.95
2019-02-24T16:33:41.736Z,16.27
2019-02-24T16:37:45.162Z,15.72
2019-02-24T16:41:48.474Z,16.90
2019-02-24T16:45:52.082Z,18.77
2019-02-24T16:49:55.401Z,14.13
2019-02-24T16:53:58.737Z,16.50
2019-02-24T16:58:02.060Z,13.72
2019-02-24T17:02:05.375Z,12.15
2019-02-24T17:06:08.708Z,11.80
2019-02-24T17:10:19.902Z,12.37
2019-02-24T17:14:24.809Z,13.98
2019-02-24T17:18:28.188Z,15.95
2019-02-24T17:22:31.507Z,11.93
2019-02-24T17:26:34.800Z,13.95
2019-02-24T17:30:38.090Z,12.18
2019-02-24T17:34:41.481Z,13.48
2019-02-24T17:38:44.891Z,12.23
2019-02-24T17:42:48.221Z,16.35
2019-02-24T17:46:51.486Z,13.28
2019-02-24T17:50:55.126Z,14.28
2019-02-24T17:54:58.423Z,10.60
2019-02-24T17:59:01.838Z,11.38
2019-02-24T18:03:05.171Z,12.10
2019-02-24T18:07:08.556Z,8.28
2019-02-24T18:11:11.891Z,16.30
2019-02-24T18:15:15.273Z,11.28
2019-02-24T18:19:18.595Z,11.65
2019-02-24T18:23:21.911Z,11.93
2019-02-24T18:27:25.284Z,10.48
2019-02-24T18:31:28.697Z,19.95
2019-02-24T18:35:32.002Z,11.28
2019-02-24T18:39:35.407Z,8.73
2019-02-24T18:43:38.742Z,10.53
2019-02-24T18:47:42.054Z,10.82
2019-02-24T18:51:45.378Z,10.48
2019-02-24T18:55:48.668Z,8.53
2019-02-24T18:59:52.044Z,12.13
2019-02-24T19:03:57.949Z,8.55
2019-02-24T19:08:00.505Z,9.20
2019-02-24T19:12:03.990Z,10.32
2019-02-24T19:16:07.391Z,16.27
2019-02-24T19:20:16.131Z,12.82
2019-02-24T19:24:19.466Z,11.78
2019-02-24T19:28:22.922Z,12.10
2019-02-24T19:32:26.326Z,10.05
2019-02-24T19:36:29.745Z,9.05
2019-02-24T19:40:33.354Z,10.82
2019-02-24T19:44:36.751Z,13.15
2019-02-24T19:48:42.167Z,11.33
2019-02-24T19:52:45.316Z,12.47
2019-02-24T19:56:48.751Z,13.60
2019-02-24T20:00:52.224Z,11.78
2019-02-24T20:04:55.607Z,10.85
2019-02-24T20:08:58.904Z,11.15
2019-02-24T20:13:02.317Z,16.27
2019-02-24T20:17:05.701Z,10.68
2019-02-24T20:21:09.031Z,10.85
2019-02-24T20:25:13.995Z,12.56
2019-02-24T20:29:17.334Z,9.33
2019-02-24T20:33:20.692Z,10.93
2019-02-24T20:37:24.000Z,9.60
2019-02-24T20:41:27.410Z,9.03
2019-02-24T20:45:30.915Z,11.28
2019-02-24T20:49:34.428Z,10.78
2019-02-24T20:53:37.797Z,11.07
2019-02-24T20:57:41.123Z,7.50
2019-02-24T21:01:44.457Z,8.70
2019-02-24T21:05:48.575Z,8.84
2019-02-24T21:09:51.881Z,9.95
2019-02-24T21:13:55.291Z,10.83
2019-02-24T21:17:58.596Z,8.47
2019-02-24T21:22:02.012Z,11.57
2019-02-24T21:26:05.418Z,10.40
2019-02-24T21:30:14.763Z,9.00
2019-02-24T21:34:18.273Z,8.93
2019-02-24T21:38:21.565Z,7.97
2019-02-24T21:42:25.006Z,8.73
2019-02-24T21:46:28.328Z,10.78
2019-02-24T21:50:31.808Z,10.43
2019-02-24T21:54:35.293Z,8.70
2019-02-24T21:58:38.585Z,8.70
2019-02-24T22:02:41.931Z,9.80
2019-02-24T22:06:45.346Z,9.43
2019-02-24T22:10:48.750Z,9.20
2019-02-24T22:14:52.159Z,8.63
2019-02-24T22:18:55.465Z,10.10
2019-02-24T22:22:58.885Z,9.63
2019-02-24T22:27:02.291Z,11.90
2019-02-24T22:31:05.693Z,15.80
2019-02-24T22:35:09.557Z,12.13
2019-02-24T22:39:12.919Z,10.33
2019-02-24T22:43:16.330Z,11.90
2019-02-24T22:47:19.736Z,13.10
2019-02-24T22:51:23.104Z,11.67
2019-02-24T22:55:26.462Z,15.83
2019-02-24T22:59:29.763Z,14.98
2019-02-24T23:03:35.394Z,13.63
2019-02-24T23:07:39.073Z,14.47
2019-02-24T23:11:42.365Z,11.93
2019-02-24T23:15:45.752Z,16.12
2019-02-24T23:19:49.065Z,12.15
2019-02-24T23:23:52.467Z,17.27
2019-02-24T23:27:55.871Z,15.53
2019-02-24T23:31:59.171Z,16.60
2019-02-24T23:36:02.591Z,14.87
2019-02-24T23:40:07.975Z,17.20
2019-02-24T23:44:11.555Z,15.43
2019-02-24T23:48:14.963Z,20.70
2019-02-24T23:52:19.296Z,17.77
2019-02-24T23:56:22.585Z,18.30
